createdAt,value
2022-12-31T00:01:10.335Z,15.00
2022-12-31T00:03:57.992Z,15.20
2022-12-31T00:06:43.672Z,15.20
2022-12-31T00:09:29.616Z,15.30
2022-12-31T00:12:15.677Z,15.30
2022-12-31T00:15:01.971Z,15.40
2022-12-31T00:17:47.574Z,15.40
2022-12-31T00:20:35.001Z,15.50
2022-12-31T00:23:21.072Z,15.40
2022-12-31T00:26:09.606Z,15.40
2022-12-31T00:28:56.875Z,15.40
2022-12-31T00:31:42.410Z,15.60
2022-12-31T00:34:28.007Z,15.80
2022-12-31T00:37:15.726Z,16.10
2022-12-31T00:40:01.582Z,16.10
2022-12-31T00:42:47.132Z,16.00
2022-12-31T00:45:32.579Z,16.10
2022-12-31T00:48:18.465Z,16.40
2022-12-31T00:51:06.294Z,16.60
2022-12-31T00:53:53.288Z,16.50
2022-12-31T00:56:38.933Z,16.40
2022-12-31T00:59:24.767Z,16.10
2022-12-31T01:02:10.958Z,16.20
2022-12-31T01:04:56.604Z,16.40
2022-12-31T01:07:42.499Z,16.20
2022-12-31T01:10:47.771Z,16.00
2022-12-31T01:13:33.535Z,16.00
2022-12-31T01:16:20.171Z,16.00
2022-12-31T01:19:06.939Z,15.80
2022-12-31T01:21:53.096Z,16.00
2022-12-31T01:24:39.144Z,15.90
2022-12-31T01:27:26.246Z,16.00
2022-12-31T01:30:12.191Z,16.10
2022-12-31T01:32:57.555Z,16.10
2022-12-31T01:35:43.042Z,16.20
2022-12-31T01:38:28.768Z,16.20
2022-12-31T01:41:15.127Z,16.30
2022-12-31T01:44:03.181Z,16.00
2022-12-31T01:46:49.875Z,16.30
2022-12-31T01:49:37.129Z,16.30
2022-12-31T01:52:24.141Z,16.20
2022-12-31T01:55:13.127Z,16.20
2022-12-31T01:58:01.465Z,16.30
2022-12-31T02:00:48.992Z,16.30
2022-12-31T02:03:35.156Z,16.10
2022-12-31T02:06:21.927Z,16.00
2022-12-31T02:09:07.797Z,16.00
2022-12-31T02:11:53.357Z,15.70
2022-12-31T02:14:39.816Z,15.90
2022-12-31T02:17:30.166Z,15.90
2022-12-31T02:20:30.588Z,15.90
2022-12-31T02:23:26.653Z,15.60
2022-12-31T02:26:25.951Z,15.80
2022-12-31T02:29:31.116Z,15.80
2022-12-31T02:32:19.742Z,15.70
2022-12-31T02:35:08.466Z,15.70
2022-12-31T02:37:57.619Z,15.80
2022-12-31T02:40:43.376Z,15.80
2022-12-31T02:43:29.098Z,16.00
2022-12-31T02:46:20.305Z,16.10
2022-12-31T02:49:09.543Z,16.10
2022-12-31T02:51:59.360Z,15.90
2022-12-31T02:54:50.181Z,16.00
2022-12-31T02:57:39.179Z,16.00
2022-12-31T03:00:43.570Z,15.80
2022-12-31T03:03:29.721Z,15.60
2022-12-31T03:06:16.989Z,15.60
2022-12-31T03:09:15.062Z,15.40
2022-12-31T03:12:20.105Z,15.60
2022-12-31T03:15:06.876Z,15.50
2022-12-31T03:17:54.155Z,15.40
2022-12-31T03:20:59.770Z,15.30
2022-12-31T03:23:50.269Z,15.30
2022-12-31T03:26:36.192Z,15.00
2022-12-31T03:29:21.751Z,15.20
2022-12-31T03:32:07.405Z,15.40
2022-12-31T03:34:53.216Z,15.50
2022-12-31T03:37:39.617Z,15.70
2022-12-31T03:40:27.453Z,15.30
2022-12-31T03:43:13.470Z,15.30
2022-12-31T03:46:01.584Z,15.30
2022-12-31T03:48:47.656Z,15.20
2022-12-31T03:51:33.184Z,15.30
2022-12-31T03:54:18.630Z,15.50
2022-12-31T03:57:05.571Z,15.50
2022-12-31T03:59:51.057Z,15.60
2022-12-31T04:02:36.961Z,15.60
2022-12-31T04:05:22.585Z,15.60
2022-12-31T04:08:08.231Z,15.60
2022-12-31T04:10:53.722Z,15.70
2022-12-31T04:13:40.884Z,15.50
2022-12-31T04:16:26.493Z,15.60
2022-12-31T04:19:12.320Z,15.50
2022-12-31T04:21:57.607Z,15.60
2022-12-31T04:24:43.594Z,15.70
2022-12-31T04:27:29.325Z,15.80
2022-12-31T04:30:16.347Z,15.90
2022-12-31T04:33:01.809Z,15.80
2022-12-31T04:35:47.474Z,15.80
2022-12-31T04:38:33.708Z,15.70
2022-12-31T04:41:30.153Z,15.70
2022-12-31T04:44:16.023Z,15.50
2022-12-31T04:47:03.308Z,15.50
2022-12-31T04:49:49.146Z,15.50
2022-12-31T04:52:40.507Z,15.50
2022-12-31T04:55:28.627Z,15.50
2022-12-31T04:58:14.497Z,15.40
2022-12-31T05:00:59.957Z,15.60
2022-12-31T05:03:47.122Z,15.60
2022-12-31T05:06:32.791Z,15.40
2022-12-31T05:09:19.888Z,15.20
2022-12-31T05:12:05.776Z,15.20
2022-12-31T05:14:51.122Z,15.30
2022-12-31T05:17:37.257Z,15.20
2022-12-31T05:20:24.218Z,15.20
2022-12-31T05:23:09.763Z,15.10
2022-12-31T05:25:55.221Z,15.20
2022-12-31T05:28:40.729Z,15.20
2022-12-31T05:31:26.497Z,15.40
2022-12-31T05:34:12.182Z,15.20
2022-12-31T05:36:59.888Z,15.40
2022-12-31T05:39:45.421Z,15.40
2022-12-31T05:42:30.787Z,15.20
2022-12-31T05:45:18.457Z,15.20
2022-12-31T05:48:03.955Z,15.60
2022-12-31T05:50:49.774Z,15.50
2022-12-31T05:53:36.558Z,15.50
2022-12-31T05:56:22.146Z,15.50
2022-12-31T05:59:07.808Z,15.60
2022-12-31T06:01:53.292Z,15.60
2022-12-31T06:04:38.754Z,15.80
2022-12-31T06:07:23.934Z,15.70
2022-12-31T06:10:11.105Z,15.70
2022-12-31T06:12:56.657Z,15.90
2022-12-31T06:15:42.224Z,15.60
2022-12-31T06:18:27.884Z,15.70
2022-12-31T06:21:13.595Z,15.40
2022-12-31T06:23:59.368Z,15.60
2022-12-31T06:26:46.420Z,15.70
2022-12-31T06:29:31.836Z,15.50
2022-12-31T06:32:17.254Z,15.70
2022-12-31T06:35:02.901Z,15.50
2022-12-31T06:37:48.381Z,15.60
2022-12-31T06:40:36.836Z,15.80
2022-12-31T06:43:23.647Z,15.80
2022-12-31T06:46:10.128Z,15.70
2022-12-31T06:48:55.876Z,15.60
2022-12-31T06:51:42.908Z,15.70
2022-12-31T06:54:28.287Z,15.70
2022-12-31T06:57:13.995Z,15.80
2022-12-31T07:00:02.081Z,15.80
2022-12-31T07:03:01.761Z,15.90
2022-12-31T07:05:51.236Z,16.00
2022-12-31T07:08:45.300Z,16.00
2022-12-31T07:11:39.217Z,16.20
2022-12-31T07:14:31.452Z,16.20
2022-12-31T07:17:30.141Z,16.20
2022-12-31T07:20:17.882Z,16.30
2022-12-31T07:23:04.196Z,16.40
2022-12-31T07:25:55.326Z,16.30
2022-12-31T07:28:53.312Z,16.50
2022-12-31T07:31:55.235Z,16.50
2022-12-31T07:34:48.804Z,16.60
2022-12-31T07:37:42.769Z,16.50
2022-12-31T07:40:35.560Z,16.50
2022-12-31T07:43:31.347Z,16.60
2022-12-31T07:46:24.827Z,16.70
2022-12-31T07:49:13.160Z,16.80
2022-12-31T07:52:00.850Z,16.90
2022-12-31T07:54:47.210Z,16.80
2022-12-31T07:57:38.529Z,16.80
2022-12-31T08:00:24.134Z,16.70
2022-12-31T08:03:17.349Z,16.50
2022-12-31T08:06:12.374Z,16.10
2022-12-31T08:09:04.957Z,15.80
2022-12-31T08:11:56.242Z,15.70
2022-12-31T08:14:47.210Z,15.80
2022-12-31T08:17:32.897Z,15.60
2022-12-31T08:20:18.643Z,15.80
2022-12-31T08:26:52.584Z,16.00
2022-12-31T08:29:43.683Z,15.90
2022-12-31T08:32:33.238Z,16.00
2022-12-31T08:35:23.024Z,16.20
2022-12-31T08:38:19.342Z,16.30
2022-12-31T08:41:09.060Z,16.10
2022-12-31T08:44:07.242Z,16.00
2022-12-31T08:47:23.077Z,16.10
2022-12-31T08:50:52.985Z,16.20
2022-12-31T08:53:39.215Z,16.00
2022-12-31T08:56:30.450Z,16.00
2022-12-31T08:59:30.721Z,16.00
2022-12-31T09:02:28.945Z,16.00
2022-12-31T09:05:21.125Z,16.00
2022-12-31T09:08:19.410Z,15.80
2022-12-31T09:11:17.724Z,15.90
2022-12-31T09:14:21.450Z,16.00
2022-12-31T09:17:17.983Z,16.20
2022-12-31T09:20:05.650Z,16.40
2022-12-31T09:22:53.048Z,16.50
2022-12-31T09:25:47.366Z,16.50
2022-12-31T09:28:43.309Z,16.60
2022-12-31T09:31:33.307Z,16.50
2022-12-31T09:34:23.871Z,16.60
2022-12-31T09:37:16.083Z,16.80
2022-12-31T09:40:05.484Z,17.10
2022-12-31T09:43:06.043Z,17.20
2022-12-31T09:46:06.524Z,17.50
2022-12-31T09:49:23.100Z,17.50
2022-12-31T09:52:21.304Z,17.60
2022-12-31T09:55:35.722Z,17.70
2022-12-31T09:58:43.641Z,18.00
2022-12-31T10:01:38.130Z,17.70
2022-12-31T10:04:48.827Z,17.70
2022-12-31T10:07:47.272Z,17.50
2022-12-31T10:10:41.326Z,17.60
2022-12-31T10:13:34.590Z,17.60
2022-12-31T10:16:24.715Z,17.50
2022-12-31T10:19:45.275Z,17.60
2022-12-31T10:22:43.354Z,17.80
2022-12-31T10:25:38.712Z,17.80
2022-12-31T10:28:30.460Z,17.70
2022-12-31T10:31:30.073Z,17.70
2022-12-31T10:34:17.404Z,17.60
2022-12-31T10:37:08.285Z,17.90
2022-12-31T10:40:00.565Z,17.60
2022-12-31T10:42:58.618Z,17.60
2022-12-31T10:45:53.391Z,17.70
2022-12-31T10:48:57.824Z,17.80
2022-12-31T10:52:01.592Z,17.90
2022-12-31T10:55:05.810Z,17.80
2022-12-31T10:58:03.969Z,18.00
2022-12-31T11:00:54.276Z,18.10
2022-12-31T11:03:58.411Z,18.10
2022-12-31T11:06:58.126Z,18.00
2022-12-31T11:10:02.560Z,18.00
2022-12-31T11:13:22.080Z,17.90
2022-12-31T11:16:20.129Z,17.30
2022-12-31T11:19:15.322Z,17.50
2022-12-31T11:22:18.885Z,17.50
2022-12-31T11:25:22.514Z,17.50
2022-12-31T11:28:22.705Z,17.60
2022-12-31T11:31:25.665Z,17.60
2022-12-31T11:34:22.290Z,17.30
2022-12-31T11:37:16.860Z,17.40
2022-12-31T11:40:48.417Z,17.30
2022-12-31T11:43:39.496Z,17.20
2022-12-31T11:46:37.942Z,17.20
2022-12-31T11:49:40.177Z,17.50
2022-12-31T11:52:38.713Z,17.70
2022-12-31T11:55:41.738Z,17.60
2022-12-31T11:58:29.782Z,17.40
2022-12-31T12:01:21.130Z,17.30
2022-12-31T12:04:08.877Z,17.30
2022-12-31T12:06:54.467Z,17.30
2022-12-31T12:09:39.852Z,17.40
2022-12-31T12:12:25.563Z,17.50
2022-12-31T12:15:18.388Z,17.50
2022-12-31T12:18:09.694Z,17.60
2022-12-31T12:21:02.007Z,17.40
2022-12-31T12:23:54.786Z,17.20
2022-12-31T12:26:42.290Z,17.20
2022-12-31T12:29:28.734Z,17.30
2022-12-31T12:32:17.335Z,17.40
2022-12-31T12:35:13.139Z,17.30
2022-12-31T12:37:59.507Z,17.40
2022-12-31T12:40:53.304Z,17.50
2022-12-31T12:43:39.123Z,17.50
2022-12-31T12:46:30.177Z,17.40
2022-12-31T12:49:21.590Z,17.40
2022-12-31T12:52:24.373Z,17.20
2022-12-31T12:55:17.318Z,17.30
2022-12-31T12:58:06.450Z,17.40
2022-12-31T13:00:56.926Z,17.30
2022-12-31T13:04:36.195Z,17.30
2022-12-31T13:07:18.784Z,17.30
2022-12-31T13:10:12.622Z,17.40
2022-12-31T13:16:14.174Z,17.50
2022-12-31T13:19:01.667Z,17.60
2022-12-31T13:21:50.696Z,17.50
2022-12-31T13:24:45.291Z,17.30
2022-12-31T13:27:34.297Z,17.30
2022-12-31T13:30:20.686Z,17.10
2022-12-31T13:33:13.960Z,17.20
2022-12-31T13:36:00.983Z,17.00
2022-12-31T13:38:49.009Z,16.90
2022-12-31T13:41:38.077Z,17.00
2022-12-31T13:44:27.162Z,17.00
2022-12-31T13:47:14.756Z,16.80
2022-12-31T13:50:02.775Z,17.00
2022-12-31T13:52:50.998Z,16.90
2022-12-31T13:55:40.028Z,16.90
2022-12-31T13:58:31.523Z,17.00
2022-12-31T14:01:19.242Z,17.20
2022-12-31T14:04:06.248Z,17.00
2022-12-31T14:06:53.271Z,17.10
2022-12-31T14:09:39.113Z,17.10
2022-12-31T14:12:29.969Z,17.30
2022-12-31T14:15:19.771Z,17.20
2022-12-31T14:18:10.002Z,17.30
2022-12-31T14:20:58.478Z,17.20
2022-12-31T14:23:47.602Z,17.30
2022-12-31T14:26:35.549Z,17.20
2022-12-31T14:29:30.134Z,17.30
2022-12-31T14:32:35.983Z,17.10
2022-12-31T14:35:32.648Z,17.20
2022-12-31T14:38:21.747Z,17.10
2022-12-31T14:41:12.092Z,17.30
2022-12-31T14:44:03.483Z,17.40
2022-12-31T14:46:56.296Z,17.70
2022-12-31T14:49:47.826Z,18.00
2022-12-31T14:52:35.485Z,18.10
2022-12-31T14:55:23.032Z,17.90
2022-12-31T14:58:28.593Z,17.80
2022-12-31T15:01:22.188Z,18.00
2022-12-31T15:04:13.829Z,18.20
2022-12-31T15:07:03.867Z,18.10
2022-12-31T15:10:03.051Z,17.90
2022-12-31T15:13:01.800Z,18.00
2022-12-31T15:16:02.106Z,18.00
2022-12-31T15:19:09.470Z,18.00
2022-12-31T15:21:59.928Z,18.10
2022-12-31T15:24:47.550Z,18.40
2022-12-31T15:27:36.060Z,18.30
2022-12-31T15:30:36.660Z,18.30
2022-12-31T15:33:28.930Z,18.30
2022-12-31T15:36:16.223Z,18.20
2022-12-31T15:39:25.512Z,18.20
2022-12-31T15:42:43.374Z,18.00
2022-12-31T15:45:33.387Z,18.00
2022-12-31T15:48:22.105Z,18.20
2022-12-31T15:51:13.076Z,18.10
2022-12-31T15:54:00.724Z,18.20
2022-12-31T15:56:48.958Z,18.20
2022-12-31T15:59:35.722Z,18.10
2022-12-31T16:02:23.539Z,18.10
2022-12-31T16:05:17.221Z,18.10
2022-12-31T16:08:02.453Z,18.20
2022-12-31T16:10:47.754Z,18.10
2022-12-31T16:13:34.970Z,18.10
2022-12-31T16:16:23.588Z,18.00
2022-12-31T16:19:23.111Z,18.00
2022-12-31T16:22:09.390Z,18.10
2022-12-31T16:25:29.276Z,18.00
2022-12-31T16:28:01.969Z,18.10
2022-12-31T16:30:55.299Z,18.10
2022-12-31T16:33:42.119Z,18.10
2022-12-31T16:36:27.575Z,18.10
2022-12-31T16:39:22.012Z,18.00
2022-12-31T16:42:09.435Z,18.10
2022-12-31T16:44:55.858Z,18.30
2022-12-31T16:47:43.190Z,18.10
2022-12-31T16:50:30.350Z,18.20
2022-12-31T16:53:17.580Z,18.20
2022-12-31T16:56:04.806Z,18.10
2022-12-31T16:58:52.301Z,18.00
2022-12-31T17:01:38.239Z,18.00
2022-12-31T17:04:24.174Z,18.00
2022-12-31T17:07:27.630Z,17.90
2022-12-31T17:10:15.991Z,17.90
2022-12-31T17:16:13.160Z,17.90
2022-12-31T17:18:59.538Z,17.90
2022-12-31T17:21:46.823Z,17.60
2022-12-31T17:24:33.956Z,17.80
2022-12-31T17:27:22.716Z,17.60
2022-12-31T17:30:19.349Z,17.80
2022-12-31T17:33:25.123Z,17.90
2022-12-31T17:36:19.375Z,17.80
2022-12-31T17:39:16.496Z,18.00
2022-12-31T17:42:03.237Z,17.80
2022-12-31T17:44:48.866Z,17.90
2022-12-31T17:47:35.783Z,18.00
2022-12-31T17:50:22.816Z,18.10
2022-12-31T17:53:09.910Z,18.10
2022-12-31T17:55:56.154Z,18.10
2022-12-31T17:58:44.720Z,18.00
2022-12-31T18:01:31.045Z,18.20
2022-12-31T18:04:17.730Z,17.90
2022-12-31T18:07:02.990Z,18.00
2022-12-31T18:09:48.134Z,17.80
2022-12-31T18:12:33.403Z,17.90
2022-12-31T18:15:21.579Z,17.90
2022-12-31T18:18:19.549Z,17.90
2022-12-31T18:21:08.858Z,18.00
2022-12-31T18:26:38.642Z,18.10
2022-12-31T18:29:23.899Z,18.30
2022-12-31T18:32:14.858Z,18.20
2022-12-31T18:35:00.340Z,18.00
2022-12-31T18:37:46.001Z,17.90
2022-12-31T18:40:33.022Z,18.00
2022-12-31T18:43:19.267Z,18.20
2022-12-31T18:46:05.258Z,18.10
2022-12-31T18:48:52.053Z,18.10
2022-12-31T18:51:37.556Z,18.00
2022-12-31T18:54:23.048Z,18.00
2022-12-31T18:57:09.217Z,18.00
2022-12-31T18:59:56.086Z,17.90
2022-12-31T19:02:41.312Z,17.90
2022-12-31T19:05:29.624Z,17.90
2022-12-31T19:08:15.143Z,17.80
2022-12-31T19:11:01.463Z,17.80
2022-12-31T19:13:47.665Z,17.80
2022-12-31T19:16:32.904Z,17.80
2022-12-31T19:19:18.511Z,17.90
2022-12-31T19:22:05.549Z,17.80
2022-12-31T19:24:51.095Z,17.90
2022-12-31T19:27:37.159Z,17.90
2022-12-31T19:30:23.754Z,17.90
2022-12-31T19:33:09.466Z,17.70
2022-12-31T19:35:55.425Z,17.90
2022-12-31T19:38:42.748Z,17.90
2022-12-31T19:41:27.854Z,17.80
2022-12-31T19:44:13.898Z,17.80
2022-12-31T19:46:59.347Z,17.60
2022-12-31T19:49:45.206Z,17.40
2022-12-31T19:52:31.162Z,17.40
2022-12-31T19:55:19.476Z,17.50
2022-12-31T19:58:05.455Z,17.50
2022-12-31T20:00:56.779Z,17.50
2022-12-31T20:03:46.862Z,17.40
2022-12-31T20:06:32.473Z,17.30
2022-12-31T20:09:17.917Z,17.20
2022-12-31T20:12:05.312Z,17.30
2022-12-31T20:14:50.920Z,17.20
2022-12-31T20:17:37.104Z,17.30
2022-12-31T20:20:22.622Z,17.30
2022-12-31T20:23:08.336Z,17.30
2022-12-31T20:25:57.246Z,17.30
2022-12-31T20:28:44.177Z,17.50
2022-12-31T20:31:29.679Z,17.50
2022-12-31T20:34:15.248Z,17.60
2022-12-31T20:37:00.796Z,17.50
2022-12-31T20:39:46.238Z,17.60
2022-12-31T20:42:31.903Z,17.50
2022-12-31T20:45:18.998Z,17.60
2022-12-31T20:48:04.268Z,17.80
2022-12-31T20:50:53.858Z,17.70
2022-12-31T20:53:39.752Z,17.50
2022-12-31T20:56:26.400Z,17.60
2022-12-31T20:59:12.099Z,17.70
2022-12-31T21:05:05.079Z,17.70
2022-12-31T21:07:50.733Z,17.80
2022-12-31T21:10:36.371Z,17.80
2022-12-31T21:13:22.974Z,17.80
2022-12-31T21:16:08.595Z,18.00
2022-12-31T21:18:55.787Z,18.00
2022-12-31T21:21:41.376Z,18.00
2022-12-31T21:24:26.864Z,18.00
2022-12-31T21:27:12.322Z,18.00
2022-12-31T21:33:03.748Z,18.00
2022-12-31T21:35:53.777Z,17.80
2022-12-31T21:38:39.911Z,17.80
2022-12-31T21:41:44.138Z,17.70
2022-12-31T21:44:29.720Z,17.80
2022-12-31T21:47:36.201Z,17.80
2022-12-31T21:50:23.983Z,17.90
2022-12-31T21:53:10.768Z,17.90
2022-12-31T21:56:08.618Z,18.00
2022-12-31T21:59:13.580Z,18.00
2022-12-31T22:02:17.981Z,17.80
2022-12-31T22:05:14.817Z,17.80
2022-12-31T22:08:03.285Z,17.80
2022-12-31T22:10:52.783Z,17.90
2022-12-31T22:13:39.201Z,17.90
2022-12-31T22:16:25.016Z,17.60
2022-12-31T22:19:10.994Z,17.90
2022-12-31T22:21:56.823Z,18.10
2022-12-31T22:24:42.564Z,18.20
2022-12-31T22:27:30.111Z,18.20
2022-12-31T22:30:15.702Z,18.30
2022-12-31T22:33:01.257Z,18.20
2022-12-31T22:35:56.332Z,18.30
2022-12-31T22:38:41.782Z,18.30
2022-12-31T22:41:27.740Z,18.10
2022-12-31T22:44:15.093Z,17.90
2022-12-31T22:47:00.634Z,17.90
2022-12-31T22:49:46.511Z,17.80
2022-12-31T22:52:32.226Z,17.90
2022-12-31T22:55:17.714Z,18.10
2022-12-31T22:58:03.410Z,18.10
2022-12-31T23:00:50.807Z,17.90
2022-12-31T23:03:36.672Z,17.90
2022-12-31T23:06:22.780Z,17.80
2022-12-31T23:09:27.049Z,18.00
2022-12-31T23:12:12.515Z,18.10
2022-12-31T23:15:16.916Z,18.10
2022-12-31T23:18:22.340Z,18.00
2022-12-31T23:21:28.146Z,17.90
2022-12-31T23:24:21.384Z,17.90
2022-12-31T23:27:10.989Z,18.00
2022-12-31T23:29:56.545Z,18.00
2022-12-31T23:32:42.259Z,18.10
2022-12-31T23:35:29.290Z,18.00
2022-12-31T23:38:17.446Z,18.10
2022-12-31T23:41:11.196Z,18.20
2022-12-31T23:43:56.614Z,18.10
2022-12-31T23:46:44.283Z,18.10
2022-12-31T23:49:30.139Z,18.30
2022-12-31T23:52:17.001Z,18.20
2022-12-31T23:55:03.676Z,18.10
2022-12-31T23:57:49.244Z,18.20
